createdAt,value
2022-12-24T00:02:46.395Z,92788.94
2022-12-24T00:07:53.808Z,92791.59
2022-12-24T00:13:00.574Z,92797.13
2022-12-24T00:18:07.839Z,92797.66
2022-12-24T00:23:14.705Z,92800.56
2022-12-24T00:28:21.547Z,92802.39
2022-12-24T00:33:28.593Z,92799.48
2022-12-24T00:38:35.595Z,92804.78
2022-12-24T00:43:43.050Z,92811.09
2022-12-24T00:48:51.020Z,92823.23
2022-12-24T00:53:58.479Z,92813.74
2022-12-24T00:59:05.233Z,92836.41
2022-12-24T01:04:30.025Z,92842.73
2022-12-24T01:09:37.013Z,92831.91
2022-12-24T01:14:44.070Z,92836.94
2022-12-24T01:19:51.057Z,92837.21
2022-12-24T01:24:57.860Z,92845.11
2022-12-24T01:30:05.486Z,92843.80
2022-12-24T01:35:13.057Z,92866.95
2022-12-24T01:40:22.165Z,92861.45
2022-12-24T01:45:48.153Z,92869.88
2022-12-24T01:51:03.559Z,92868.58
2022-12-24T01:56:12.159Z,92873.58
2022-12-24T02:01:20.211Z,92901.23
2022-12-24T02:06:27.978Z,92894.39
2022-12-24T02:11:36.278Z,92896.50
2022-12-24T02:17:23.603Z,92912.02
2022-12-24T02:22:40.666Z,92894.66
2022-12-24T02:28:30.859Z,92907.33
2022-12-24T02:34:02.789Z,92896.51
2022-12-24T02:39:25.824Z,92913.91
2022-12-24T02:44:37.158Z,92929.70
2022-12-24T02:49:46.988Z,92928.65
2022-12-24T02:54:53.688Z,92912.83
2022-12-24T03:00:05.020Z,92911.28
2022-12-24T03:05:21.763Z,92920.23
2022-12-24T03:10:41.579Z,92924.20
2022-12-24T03:15:49.608Z,92919.73
2022-12-24T03:21:09.393Z,92932.14
2022-12-24T03:26:19.471Z,92933.98
2022-12-24T03:31:26.415Z,92927.63
2022-12-24T03:36:33.092Z,92916.79
2022-12-24T03:41:40.370Z,92926.84
2022-12-24T03:46:47.048Z,92926.05
2022-12-24T03:51:53.762Z,92922.11
2022-12-24T03:57:00.456Z,92937.64
2022-12-24T04:02:07.818Z,92950.06
2022-12-24T04:07:15.212Z,92971.41
2022-12-24T04:12:22.414Z,92966.94
2022-12-24T04:17:29.224Z,92979.30
2022-12-24T04:22:36.168Z,92990.31
2022-12-24T04:27:42.916Z,92988.76
2022-12-24T04:32:49.999Z,92983.78
2022-12-24T04:37:56.991Z,92971.95
2022-12-24T04:43:03.760Z,92973.01
2022-12-24T04:48:10.660Z,92971.69
2022-12-24T04:53:17.572Z,92991.20
2022-12-24T04:58:24.358Z,92991.72
2022-12-24T05:03:31.301Z,92976.70
2022-12-24T05:08:39.020Z,92991.22
2022-12-24T05:13:48.349Z,93008.06
2022-12-24T05:18:56.057Z,93005.18
2022-12-24T05:24:20.275Z,93008.27
2022-12-24T05:29:27.428Z,93006.72
2022-12-24T05:34:34.126Z,92878.73
2022-12-24T05:39:41.096Z,93027.02
2022-12-24T05:44:47.719Z,93044.48
2022-12-24T05:49:54.620Z,93045.77
2022-12-24T05:55:01.635Z,93044.91
2022-12-24T06:00:11.864Z,93044.06
2022-12-24T06:05:19.406Z,93067.78
2022-12-24T06:10:26.139Z,93068.20
2022-12-24T06:15:33.175Z,93053.83
2022-12-24T06:20:40.027Z,93060.30
2022-12-24T06:25:47.154Z,93062.15
2022-12-24T06:31:00.302Z,93082.55
2022-12-24T06:36:03.343Z,93086.77
2022-12-24T06:41:11.164Z,93077.33
2022-12-24T06:46:19.445Z,93097.38
2022-12-24T06:51:26.193Z,93091.45
2022-12-24T06:56:33.368Z,93084.85
2022-12-24T07:01:40.159Z,93074.07
2022-12-24T07:06:47.204Z,93097.02
2022-12-24T07:11:53.938Z,93110.48
2022-12-24T07:17:00.804Z,93099.12
2022-12-24T07:22:11.842Z,93122.64
2022-12-24T07:27:16.133Z,93137.96
2022-12-24T07:32:23.102Z,93146.41
2022-12-24T07:37:30.218Z,93144.03
2022-12-24T07:42:37.085Z,93147.73
2022-12-24T07:47:45.064Z,93162.50
2022-12-24T07:52:51.726Z,93175.98
2022-12-24T07:57:58.389Z,93180.23
2022-12-24T08:03:05.550Z,93172.29
2022-12-24T08:08:13.007Z,93189.99
2022-12-24T08:13:20.295Z,93198.45
2022-12-24T08:18:27.389Z,93201.33
2022-12-24T08:23:34.018Z,93216.92
2022-12-24T08:28:40.684Z,93228.80
2022-12-24T08:33:47.663Z,93228.30
2022-12-24T08:38:54.405Z,93234.88
2022-12-24T08:44:01.547Z,93259.47
2022-12-24T08:49:08.213Z,93258.93
2022-12-24T08:54:14.964Z,93258.15
2022-12-24T08:59:21.645Z,93257.36
2022-12-24T09:04:29.498Z,93253.94
2022-12-24T09:09:38.193Z,93261.59
2022-12-24T09:14:45.454Z,93268.22
2022-12-24T09:19:52.183Z,93277.98
2022-12-24T09:24:59.155Z,93285.64
2022-12-24T09:30:09.091Z,93291.20
2022-12-24T09:35:16.293Z,93152.47
2022-12-24T09:40:29.227Z,93303.37
2022-12-24T09:45:39.908Z,93297.27
2022-12-24T09:51:03.258Z,93295.70
2022-12-24T09:56:26.055Z,93303.91
2022-12-24T10:01:35.451Z,93315.52
2022-12-24T10:06:58.737Z,93319.48
2022-12-24T10:12:12.931Z,93319.75
2022-12-24T10:17:52.394Z,93317.63
2022-12-24T10:23:29.236Z,93323.20
2022-12-24T10:28:55.452Z,93324.20
2022-12-24T10:34:12.571Z,93324.60
2022-12-24T10:39:25.585Z,93327.48
2022-12-24T10:44:34.760Z,93328.19
2022-12-24T10:50:06.812Z,93346.19
2022-12-24T10:55:24.407Z,93359.38
2022-12-24T11:00:35.874Z,93364.05
2022-12-24T11:05:40.872Z,93371.15
2022-12-24T11:11:04.019Z,93379.16
2022-12-24T11:16:32.043Z,93385.31
2022-12-24T11:21:42.445Z,93375.98
2022-12-24T11:26:49.173Z,93381.58
2022-12-24T11:31:59.614Z,93384.19
2022-12-24T11:37:22.734Z,93376.13
2022-12-24T11:42:41.513Z,93373.13
2022-12-24T11:47:48.503Z,93370.99
2022-12-24T11:53:06.016Z,93375.63
2022-12-24T11:58:52.746Z,93371.44
2022-12-24T12:04:16.497Z,93368.45
2022-12-24T12:09:35.741Z,93366.90
2022-12-24T12:14:59.063Z,93370.66
2022-12-24T12:20:24.155Z,93363.55
2022-12-24T12:25:58.918Z,93374.99
2022-12-24T12:31:18.706Z,93375.72
2022-12-24T12:36:32.480Z,93375.86
2022-12-24T12:42:00.818Z,93389.44
2022-12-24T12:47:26.757Z,93375.44
2022-12-24T12:53:10.705Z,93376.59
2022-12-24T12:58:30.663Z,93384.41
2022-12-24T13:03:53.520Z,93397.06
2022-12-24T13:09:20.889Z,93399.84
2022-12-24T13:14:40.492Z,93407.10
2022-12-24T13:20:13.844Z,93395.68
2022-12-24T13:25:30.565Z,93391.91
2022-12-24T13:30:40.433Z,93403.05
2022-12-24T13:36:03.353Z,93416.30
2022-12-24T13:41:40.630Z,93429.17
2022-12-24T13:47:06.886Z,93434.62
2022-12-24T13:52:19.689Z,93447.16
2022-12-24T13:57:54.803Z,93450.97
2022-12-24T14:03:17.761Z,93462.66
2022-12-24T14:08:31.955Z,93474.36
2022-12-24T14:13:49.176Z,93481.27
2022-12-24T14:19:21.701Z,93479.97
2022-12-24T14:24:37.446Z,93477.64
2022-12-24T14:30:09.285Z,93494.66
2022-12-24T14:35:22.419Z,93502.59
2022-12-24T14:40:33.164Z,93493.88
2022-12-24T14:46:08.133Z,93506.84
2022-12-24T14:51:23.050Z,93507.90
2022-12-24T14:56:29.542Z,93529.60
2022-12-24T15:01:36.579Z,93530.93
2022-12-24T15:06:56.418Z,93551.02
2022-12-24T15:12:05.980Z,93559.19
2022-12-24T15:17:16.608Z,93558.91
2022-12-24T15:22:29.736Z,93560.23
2022-12-24T15:27:40.072Z,93574.92
2022-12-24T15:32:46.836Z,93586.86
2022-12-24T15:37:53.616Z,93590.03
2022-12-24T15:43:00.329Z,93597.92
2022-12-24T15:48:14.164Z,93615.11
2022-12-24T15:53:28.282Z,93610.86
2022-12-24T15:58:39.261Z,93611.60
2022-12-24T16:03:56.723Z,93616.84
2022-12-24T16:09:03.483Z,93626.17
2022-12-24T16:14:17.519Z,93626.95
2022-12-24T16:19:40.342Z,93629.97
2022-12-24T16:24:44.223Z,93638.22
2022-12-24T16:29:51.134Z,93638.23
2022-12-24T16:34:57.985Z,93645.64
2022-12-24T16:40:04.851Z,93657.17
2022-12-24T16:45:12.373Z,93657.93
2022-12-24T16:50:20.337Z,93652.75
2022-12-24T16:55:27.160Z,93650.95
2022-12-24T17:00:34.196Z,93652.37
2022-12-24T17:05:42.691Z,93654.78
2022-12-24T17:10:55.098Z,93660.98
2022-12-24T17:16:03.957Z,93630.38
2022-12-24T17:21:13.535Z,93662.83
2022-12-24T17:26:20.291Z,93664.64
2022-12-24T17:31:27.918Z,93670.27
2022-12-24T17:36:35.272Z,93669.36
2022-12-24T17:41:42.360Z,93675.48
2022-12-24T17:46:49.326Z,93690.09
2022-12-24T17:51:56.693Z,93689.80
2022-12-24T17:57:03.652Z,93692.52
2022-12-24T18:02:13.798Z,93698.86
2022-12-24T18:07:20.937Z,93704.31
2022-12-24T18:12:27.914Z,93708.05
2022-12-24T18:17:35.087Z,93702.23
2022-12-24T18:22:41.849Z,93703.03
2022-12-24T18:27:48.646Z,93693.80
2022-12-24T18:32:55.435Z,93703.39
2022-12-24T18:38:02.060Z,93711.06
2022-12-24T18:43:08.800Z,93731.28
2022-12-24T18:48:15.916Z,93737.36
2022-12-24T18:53:22.815Z,93734.34
2022-12-24T18:58:30.081Z,93727.95
2022-12-24T19:03:37.123Z,93740.33
2022-12-24T19:09:01.246Z,93744.37
2022-12-24T19:13:58.447Z,93742.08
2022-12-24T19:19:07.227Z,93736.23
2022-12-24T19:24:14.730Z,93735.45
2022-12-24T19:29:22.514Z,93744.72
2022-12-24T19:34:29.425Z,93744.62
2022-12-24T19:39:36.195Z,93767.28
2022-12-24T19:44:42.970Z,93786.19
2022-12-24T19:49:50.871Z,93785.46
2022-12-24T19:54:57.964Z,93796.59
2022-12-24T20:00:05.937Z,93806.60
2022-12-24T20:05:12.915Z,93811.97
2022-12-24T20:10:19.895Z,93799.87
2022-12-24T20:15:27.096Z,93793.55
2022-12-24T20:20:34.131Z,93780.46
2022-12-24T20:25:40.983Z,93796.10
2022-12-24T20:30:48.591Z,93803.70
2022-12-24T20:35:55.773Z,93795.86
2022-12-24T20:41:02.788Z,93817.14
2022-12-24T20:46:10.618Z,93823.30
2022-12-24T20:51:24.649Z,93822.26
2022-12-24T20:56:32.419Z,93815.58
2022-12-24T21:01:39.556Z,93816.50
2022-12-24T21:06:46.487Z,93816.47
2022-12-24T21:11:52.843Z,93824.31
2022-12-24T21:17:00.008Z,93836.41
2022-12-24T21:22:07.089Z,93829.19
2022-12-24T21:27:13.969Z,93833.15
2022-12-24T21:32:21.029Z,93841.06
2022-12-24T21:37:28.088Z,93839.92
2022-12-24T21:42:35.892Z,93851.67
2022-12-24T21:47:44.295Z,93849.13
2022-12-24T21:52:53.117Z,93847.88
2022-12-24T21:58:00.101Z,93839.38
2022-12-24T22:03:07.184Z,93833.42
2022-12-24T22:08:31.435Z,93825.11
2022-12-24T22:13:38.891Z,93815.42
2022-12-24T22:18:45.853Z,93810.30
2022-12-24T22:23:52.488Z,93820.91
2022-12-24T22:28:59.191Z,93820.56
2022-12-24T22:34:06.264Z,93815.27
2022-12-24T22:39:13.011Z,93811.56
2022-12-24T22:44:19.660Z,93824.14
2022-12-24T22:49:26.452Z,93820.23
2022-12-24T22:54:33.473Z,93821.47
2022-12-24T22:59:40.635Z,93833.55
2022-12-24T23:04:47.724Z,93830.33
2022-12-24T23:09:57.430Z,93828.05
2022-12-24T23:15:04.769Z,93836.46
2022-12-24T23:20:12.972Z,93834.16
2022-12-24T23:25:21.670Z,93685.98
2022-12-24T23:30:28.515Z,93837.00
2022-12-24T23:35:36.017Z,93818.42
2022-12-24T23:40:45.024Z,93824.19
2022-12-24T23:45:55.472Z,93830.25
2022-12-24T23:51:12.501Z,93828.38
2022-12-24T23:56:19.916Z,93820.56
